Garden Spring, Nevada Weather observations

Data are for 10 minute period ending at time listed.
 Day   Time    Ave.   Ave.  Ave.  Vector   Max.   Stn.    Total    Solar   Ave.  
  of    of     Air    Rel.  Wind   Wind    Wind   Baro.  Precip.   Rad.    Soil  
Year   Day     Temp.  Hum.  Speed  Dir.    Gust   Pres.                    Temp. 
2015   (PST)    F      %     mph   deg.    mph     mb.     in.     W/m2     F    
--------------------------------------------------------------------------------- 
 146    8:00   62.9    53    1.4   176      4.9   852.5    0.00     174    62.1  
 146    9:00   65.7    48    4.8    89      9.3   852.6    0.00     527    62.5  
 146   10:00   68.0    42    4.8    98     10.1   852.6    0.00     730    63.0  
 146   11:00   70.1    38    4.8   121     10.0   852.6    0.00     877    64.8  
 146   12:00   71.9    33    6.2   167     13.6   852.5    0.00     974    67.5  
 146   13:00   73.2    32    6.2   176     16.0   852.1    0.00    1003    70.2  
 146   14:00   74.4    29    7.2   175     18.1   851.5    0.00     927    73.2  
 146   15:00   75.5    26    7.7   182     16.5   851.0    0.00     859    75.9  
 146   16:00   75.1    23    8.2   182     17.6   850.5    0.00     612    77.3  
 146   17:00   75.3    20    7.3   174     17.4   850.3    0.00     436    77.7  
 146   18:00   74.8    18    5.9   183     15.4   850.2    0.00     234    76.9  
 146   19:00   74.4    16    6.6   171     14.7   850.2    0.00     198    75.9  
 146   20:00   66.3    38    8.8   347     22.3   850.8    0.00       9    74.1  
 146   21:00   63.3    44    7.1   322     15.4   851.4    0.00       0    73.0  
 146   22:00   61.3    43    4.5   282      7.9   851.7    0.00       0    71.7  
 146   23:00   59.1    44    3.8   263      6.2   851.8    0.00       0    70.4  
 147    0:00   57.4    48    3.5   280      6.0   851.9    0.00       0    69.2  
 147    1:00   57.3    47    4.4   277      6.0   851.9    0.00       0    68.1  
 147    2:00   56.2    43    4.3   281      6.4   851.9    0.00       0    67.0  
 147    3:00   55.7    45    4.6   278      6.8   852.0    0.00       0    66.0  
 147    4:00   55.3    47    4.5   273      7.9   852.0    0.00       0    65.1  
 147    5:00   54.6    47    4.5   276      7.1   852.0    0.00       0    64.2  
 147    6:00   55.9    46    4.6   271      7.5   852.3    0.00      21    63.4  
 147    7:00   63.2    36    1.5   298      4.4   852.7    0.00     146    63.7  

Return to Garden Spring, Nevada graphs page.


Western Regional Climate Center,wrcc@dri.edu